Time;durP1;ratioP1;P1;durP2;ratioP2;P2;SDS_P1;SDS_P2;PMS_P1;PMS_P2;Temp;Humidity;BMP_temperature;BMP_pressure;BME280_temperature;BME280_humidity;BME280_pressure;Samples;Min_cycle;Max_cycle;Signal;HPM_P1;HPM_P2
2023/02/12 00:00:22;;;;;;;41.90;16.67;;;1.50;83.90;;;;;;4977612;28;88500;-75
2023/02/12 00:02:48;;;;;;;40.38;15.75;;;1.50;84.20;;;;;;4980793;28;88271;-75
2023/02/12 00:05:15;;;;;;;40.70;16.83;;;1.50;84.40;;;;;;4981520;28;91955;-75
2023/02/12 00:07:41;;;;;;;36.40;15.82;;;1.40;85.20;;;;;;4978620;28;87788;-75
2023/02/12 00:10:08;;;;;;;38.42;15.32;;;1.40;85.70;;;;;;4978431;28;87016;-76
2023/02/12 00:12:34;;;;;;;38.53;15.88;;;1.30;85.60;;;;;;4979034;28;89278;-74
2023/02/12 00:14:59;;;;;;;37.33;15.77;;;1.30;86.00;;;;;;4990634;28;87226;-75
2023/02/12 00:17:25;;;;;;;37.85;15.88;;;1.30;86.50;;;;;;4977417;28;87662;-76
2023/02/12 00:19:50;;;;;;;36.70;15.80;;;1.20;85.90;;;;;;4987546;28;87646;-73
2023/02/12 00:22:16;;;;;;;40.63;16.58;;;1.20;85.90;;;;;;4978278;28;88583;-75
2023/02/12 00:24:42;;;;;;;41.88;15.45;;;1.10;86.70;;;;;;4977261;28;87636;-73
2023/02/12 00:27:07;;;;;;;37.40;14.50;;;1.00;87.70;;;;;;4977216;28;88502;-73
2023/02/12 00:29:33;;;;;;;37.70;14.82;;;1.10;87.70;;;;;;4977445;28;87526;-74
2023/02/12 00:31:59;;;;;;;38.58;15.25;;;1.10;86.90;;;;;;4980018;28;87646;-74
2023/02/12 00:34:24;;;;;;;33.90;14.18;;;1.10;86.80;;;;;;4984842;28;88333;-74
2023/02/12 00:36:50;;;;;;;35.90;15.52;;;1.00;86.70;;;;;;4978451;28;87486;-74
2023/02/12 00:39:15;;;;;;;40.03;15.25;;;0.90;86.80;;;;;;4993516;28;87461;-74
2023/02/12 00:41:41;;;;;;;32.95;13.93;;;0.90;87.20;;;;;;4978759;28;87561;-75
2023/02/12 00:44:07;;;;;;;35.28;15.02;;;0.90;88.20;;;;;;4975740;28;91117;-74
2023/02/12 00:46:32;;;;;;;39.63;15.18;;;0.90;88.50;;;;;;4976946;28;87489;-75
2023/02/12 00:48:58;;;;;;;36.63;14.45;;;0.90;88.80;;;;;;4976434;28;88479;-76
2023/02/12 00:51:25;;;;;;;37.80;14.13;;;0.90;88.70;;;;;;4978351;28;90138;-76
2023/02/12 00:53:51;;;;;;;38.30;14.48;;;0.90;89.00;;;;;;4984626;28;88334;-73
2023/02/12 00:56:16;;;;;;;31.42;13.40;;;0.80;87.60;;;;;;4977380;28;87608;-73
2023/02/12 00:58:42;;;;;;;36.38;14.00;;;0.80;88.60;;;;;;4977012;28;87410;-74
2023/02/12 01:01:08;;;;;;;35.03;12.88;;;0.80;88.60;;;;;;4978917;28;89012;-73
2023/02/12 01:03:34;;;;;;;36.92;14.18;;;0.70;88.30;;;;;;4987510;28;87381;-74
2023/02/12 01:05:59;;;;;;;39.80;14.27;;;0.70;88.50;;;;;;4991168;28;87384;-73
2023/02/12 01:08:25;;;;;;;38.25;14.30;;;0.60;88.80;;;;;;4977478;28;86932;-74
2023/02/12 01:11:01;;;;;;;37.95;13.95;;;0.60;89.30;;;;;;4974733;28;88222;-74
2023/02/12 01:13:29;;;;;;;32.95;13.90;;;0.60;89.00;;;;;;4977547;28;87577;-74
2023/02/12 01:16:22;;;;;;;33.50;12.48;;;0.70;89.40;;;;;;4976538;28;88155;-74
2023/02/12 01:18:48;;;;;;;34.28;13.82;;;0.70;90.00;;;;;;4976178;28;87254;-74
2023/02/12 01:21:24;;;;;;;35.90;12.63;;;0.70;90.00;;;;;;4976703;28;87768;-73
2023/02/12 01:23:50;;;;;;;34.30;12.52;;;0.70;90.10;;;;;;4976691;28;87384;-73
2023/02/12 01:26:17;;;;;;;32.50;12.70;;;0.70;89.10;;;;;;4977357;28;87083;-72
2023/02/12 01:28:44;;;;;;;34.85;12.80;;;0.70;88.90;;;;;;4979596;28;87670;-73
2023/02/12 01:31:12;;;;;;;34.30;12.63;;;0.70;89.60;;;;;;4976042;28;88218;-72
2023/02/12 01:33:38;;;;;;;33.15;11.63;;;0.70;89.40;;;;;;4978183;28;90542;-73
2023/02/12 01:36:04;;;;;;;32.60;13.20;;;0.80;89.50;;;;;;4978691;28;87734;-73
2023/02/12 01:38:29;;;;;;;36.40;14.63;;;0.70;89.90;;;;;;4978185;28;87527;-72
2023/02/12 01:41:07;;;;;;;36.78;12.40;;;0.70;90.10;;;;;;4980830;28;89445;-74
2023/02/12 01:43:34;;;;;;;35.92;13.43;;;0.80;89.70;;;;;;4981434;28;87926;-73
2023/02/12 01:46:01;;;;;;;35.35;12.73;;;0.70;89.40;;;;;;4980328;28;87336;-74
2023/02/12 01:48:31;;;;;;;36.10;12.95;;;0.70;89.90;;;;;;4979071;28;87704;-72
2023/02/12 01:50:57;;;;;;;38.35;13.70;;;0.70;89.60;;;;;;4979798;28;88830;-73
2023/02/12 01:53:28;;;;;;;34.83;13.20;;;0.70;89.10;;;;;;4978989;28;91091;-72
2023/02/12 01:55:58;;;;;;;38.53;13.13;;;0.70;89.50;;;;;;4979293;28;87438;-72
2023/02/12 01:58:29;;;;;;;32.40;12.48;;;0.70;89.10;;;;;;4988308;28;87970;-72
2023/02/12 02:00:55;;;;;;;36.67;13.27;;;0.70;88.80;;;;;;4979446;28;88079;-71
2023/02/12 02:03:20;;;;;;;36.15;12.85;;;0.60;88.90;;;;;;4980292;28;87419;-72
2023/02/12 02:05:54;;;;;;;33.90;12.77;;;0.80;89.10;;;;;;4979345;28;88186;-75
2023/02/12 02:08:21;;;;;;;30.70;12.60;;;0.70;88.60;;;;;;4988995;28;87473;-74
2023/02/12 02:10:46;;;;;;;33.65;12.48;;;0.60;88.90;;;;;;4992280;28;88229;-75
2023/02/12 02:16:11;;;;;;;30.73;12.25;;;0.50;89.50;;;;;;4979657;28;87862;-74
2023/02/12 02:19:00;;;;;;;31.55;12.35;;;0.40;89.50;;;;;;4989139;28;87737;-75
2023/02/12 02:21:48;;;;;;;34.35;12.43;;;0.40;89.40;;;;;;4979840;28;88208;-74
2023/02/12 02:24:50;;;;;;;32.13;12.95;;;0.30;89.90;;;;;;4974899;28;87194;-74
2023/02/12 02:27:22;;;;;;;33.35;12.55;;;0.30;89.70;;;;;;4993127;28;88194;-76
2023/02/12 02:30:06;;;;;;;36.47;12.10;;;0.30;89.80;;;;;;4983537;28;87751;-75
2023/02/12 02:32:37;;;;;;;30.77;11.60;;;0.30;89.60;;;;;;4967514;28;88281;-73
2023/02/12 02:35:22;;;;;;;31.17;11.38;;;0.30;89.70;;;;;;4978617;28;88892;-74
2023/02/12 02:37:57;;;;;;;31.23;12.02;;;0.20;89.60;;;;;;4979780;28;87530;-73
2023/02/12 02:40:36;;;;;;;33.80;12.00;;;0.10;89.60;;;;;;4981892;28;87135;-74
2023/02/12 02:43:15;;;;;;;32.03;12.05;;;0.20;89.40;;;;;;4971585;28;89113;-75
2023/02/12 02:45:55;;;;;;;33.55;11.75;;;0.20;89.50;;;;;;4977101;28;87516;-75
2023/02/12 02:48:31;;;;;;;29.58;11.68;;;0.20;89.20;;;;;;4978596;28;87418;-75
2023/02/12 02:51:02;;;;;;;28.63;11.10;;;0.20;90.00;;;;;;4982429;28;86745;-75
2023/02/12 02:53:32;;;;;;;30.52;11.27;;;0.10;90.10;;;;;;4987649;28;90030;-75
2023/02/12 02:56:00;;;;;;;28.80;11.52;;;0.10;89.80;;;;;;4978570;28;87894;-73
2023/02/12 02:58:48;;;;;;;25.05;10.25;;;0.00;89.70;;;;;;4977671;28;88380;-74
2023/02/12 03:01:22;;;;;;;31.77;11.27;;;0.00;89.60;;;;;;4978877;28;87457;-73
2023/02/12 03:04:05;;;;;;;31.20;11.65;;;0.00;89.40;;;;;;4977558;28;87497;-75
2023/02/12 03:06:43;;;;;;;28.38;11.15;;;-0.10;89.50;;;;;;4987314;28;87988;-74
2023/02/12 03:09:20;;;;;;;35.13;12.05;;;-0.10;89.30;;;;;;4998628;28;87774;-74
2023/02/12 03:11:46;;;;;;;32.35;11.25;;;-0.10;89.90;;;;;;4985021;28;87374;-76
2023/02/12 03:14:15;;;;;;;29.90;10.82;;;-0.10;89.40;;;;;;4983182;28;88060;-75
2023/02/12 03:17:00;;;;;;;31.60;12.05;;;-0.10;89.20;;;;;;4982796;28;88049;-74
2023/02/12 03:19:31;;;;;;;31.67;10.98;;;-0.20;89.60;;;;;;4985707;28;87964;-75
2023/02/12 03:22:01;;;;;;;;;;;-0.20;89.80;;;;;;4979341;28;87485;-75
2023/02/12 03:24:35;;;;;;;25.13;9.55;;;-0.20;89.90;;;;;;4979521;28;89668;-75
2023/02/12 03:27:07;;;;;;;27.25;10.35;;;-0.20;89.50;;;;;;4978208;28;87958;-76
2023/02/12 03:29:33;;;;;;;26.05;10.13;;;-0.20;89.80;;;;;;4986933;28;87564;-74
2023/02/12 03:32:10;;;;;;;30.00;11.60;;;-0.30;90.00;;;;;;4977953;28;87293;-75
2023/02/12 03:34:51;;;;;;;26.67;11.75;;;-0.30;90.20;;;;;;4976560;28;87865;-73
2023/02/12 03:37:28;;;;;;;25.40;11.23;;;-0.20;90.10;;;;;;4978053;28;88025;-75
2023/02/12 03:39:56;;;;;;;26.48;10.68;;;-0.30;90.30;;;;;;4993524;28;87269;-76
2023/02/12 03:42:38;;;;;;;31.23;10.70;;;-0.30;90.70;;;;;;4983430;28;86291;-76
2023/02/12 03:45:18;;;;;;;26.77;10.57;;;-0.30;91.00;;;;;;4979284;28;88334;-76
2023/02/12 03:48:20;;;;;;;31.27;11.85;;;-0.30;90.40;;;;;;4977539;28;88229;-74
2023/02/12 03:50:56;;;;;;;26.55;10.55;;;-0.30;90.50;;;;;;4954369;28;88460;-74
2023/02/12 03:53:23;;;;;;;27.25;11.10;;;-0.30;90.40;;;;;;4991401;28;87098;-74
2023/02/12 03:55:55;;;;;;;28.50;11.02;;;-0.40;90.80;;;;;;4979496;28;88620;-75
2023/02/12 03:58:24;;;;;;;24.13;10.07;;;-0.40;90.70;;;;;;4970608;28;88646;-75
2023/02/12 04:00:50;;;;;;;23.75;9.90;;;-0.40;90.90;;;;;;4977339;28;87541;-73
2023/02/12 04:03:16;;;;;;;25.00;10.40;;;-0.40;90.60;;;;;;4979444;28;87558;-72
2023/02/12 04:05:42;;;;;;;26.95;11.00;;;-0.40;90.70;;;;;;4977650;28;88186;-75
2023/02/12 04:08:10;;;;;;;25.45;10.38;;;-0.30;90.50;;;;;;4977635;28;87765;-74
2023/02/12 04:10:49;;;;;;;25.33;10.20;;;-0.30;90.70;;;;;;4978057;28;87329;-73
2023/02/12 04:13:43;;;;;;;26.10;10.32;;;-0.30;90.60;;;;;;4978422;28;87391;-73
2023/02/12 04:16:28;;;;;;;25.40;10.55;;;-0.40;91.30;;;;;;4996043;28;88904;-74
2023/02/12 04:18:54;;;;;;;25.52;10.32;;;-0.40;91.20;;;;;;4978013;28;89488;-74
2023/02/12 04:21:29;;;;;;;28.73;10.23;;;-0.40;91.20;;;;;;4979258;28;87760;-74
2023/02/12 04:23:57;;;;;;;30.05;10.95;;;-0.40;91.10;;;;;;4994152;28;87525;-75
2023/02/12 04:26:37;;;;;;;22.42;9.43;;;-0.40;91.00;;;;;;4990663;28;88795;-74
2023/02/12 04:29:08;;;;;;;27.40;10.48;;;-0.40;91.00;;;;;;4977878;28;87485;-73
2023/02/12 04:31:45;;;;;;;25.90;10.10;;;-0.50;91.10;;;;;;4977731;28;87679;-71
2023/02/12 04:34:42;;;;;;;26.55;10.88;;;-0.40;90.90;;;;;;4982117;28;86717;-70
2023/02/12 04:37:26;;;;;;;24.55;10.20;;;-0.50;90.70;;;;;;4985485;28;88815;-75
2023/02/12 04:39:52;;;;;;;28.63;10.15;;;-0.50;90.70;;;;;;4996745;28;87302;-74
2023/02/12 04:42:18;;;;;;;24.30;10.20;;;-0.50;90.60;;;;;;4969678;28;88472;-74
2023/02/12 04:44:43;;;;;;;25.88;10.50;;;-0.50;90.50;;;;;;4990504;28;88170;-74
2023/02/12 04:47:14;;;;;;;26.05;10.63;;;-0.50;90.90;;;;;;4983113;28;88513;-74
2023/02/12 04:49:40;;;;;;;29.63;10.02;;;-0.50;90.90;;;;;;4976415;28;87995;-74
2023/02/12 04:52:06;;;;;;;26.58;10.02;;;-0.50;90.50;;;;;;4977276;28;87470;-70
2023/02/12 04:54:32;;;;;;;28.25;10.77;;;-0.60;90.70;;;;;;4982292;28;87659;-73
2023/02/12 04:56:58;;;;;;;28.70;10.30;;;-0.60;90.80;;;;;;4976767;28;87573;-74
2023/02/12 04:59:23;;;;;;;31.30;10.48;;;-0.60;90.60;;;;;;4978951;28;88545;-75
2023/02/12 05:01:49;;;;;;;27.73;10.45;;;-0.60;90.50;;;;;;4991153;28;87735;-76
2023/02/12 05:04:16;;;;;;;23.17;10.40;;;-0.60;90.70;;;;;;4991417;28;87802;-76
2023/02/12 05:06:43;;;;;;;27.67;10.48;;;-0.60;90.70;;;;;;4991162;28;89775;-75
2023/02/12 05:09:13;;;;;;;26.20;10.43;;;-0.70;90.80;;;;;;4976836;28;88476;-76
2023/02/12 05:11:38;;;;;;;25.38;10.60;;;-0.70;91.00;;;;;;4969386;28;87373;-76
2023/02/12 05:14:04;;;;;;;25.13;10.10;;;-0.70;91.10;;;;;;4977138;28;87370;-76
2023/02/12 05:16:30;;;;;;;24.52;10.57;;;-0.70;91.40;;;;;;4979274;28;88124;-76
2023/02/12 05:18:56;;;;;;;26.67;10.77;;;-0.80;91.40;;;;;;4982860;28;88033;-75
2023/02/12 05:21:21;;;;;;;24.88;9.80;;;-0.80;91.70;;;;;;4995165;28;87137;-76
2023/02/12 05:23:47;;;;;;;25.98;10.57;;;-0.70;91.50;;;;;;4979212;28;86447;-76
2023/02/12 05:26:15;;;;;;;23.48;10.52;;;-0.80;91.40;;;;;;4976810;28;88060;-74
2023/02/12 05:28:41;;;;;;;28.55;11.23;;;-0.80;91.40;;;;;;4976138;28;87934;-72
2023/02/12 05:31:09;;;;;;;31.73;10.82;;;-0.70;91.40;;;;;;4985495;28;88003;-73
2023/02/12 05:33:35;;;;;;;22.98;9.93;;;-0.60;91.60;;;;;;4979852;28;87812;-74
2023/02/12 05:36:10;;;;;;;24.67;10.65;;;-0.70;92.30;;;;;;4992659;28;89560;-75
2023/02/12 05:38:35;;;;;;;26.02;9.85;;;-0.70;91.80;;;;;;4977153;28;87897;-74
2023/02/12 05:41:06;;;;;;;26.52;10.35;;;-0.70;91.40;;;;;;4976825;28;87280;-75
2023/02/12 05:43:32;;;;;;;27.00;10.25;;;-0.80;91.70;;;;;;4979873;28;86957;-73
2023/02/12 05:45:59;;;;;;;28.95;10.95;;;-0.70;91.60;;;;;;4985158;28;87105;-75
2023/02/12 05:48:26;;;;;;;29.98;10.55;;;-0.70;91.80;;;;;;4976103;28;88060;-73
2023/02/12 05:50:51;;;;;;;23.45;9.93;;;-0.70;92.20;;;;;;4976908;28;87541;-73
2023/02/12 05:53:17;;;;;;;26.80;10.90;;;-0.70;91.90;;;;;;4976853;28;87413;-73
2023/02/12 05:55:43;;;;;;;25.42;10.35;;;-0.70;91.40;;;;;;4975574;28;88584;-73
2023/02/12 05:58:08;;;;;;;24.38;10.02;;;-0.70;92.00;;;;;;4974835;28;88816;-73
2023/02/12 06:00:34;;;;;;;27.65;10.27;;;-0.70;91.90;;;;;;4984678;28;88200;-73
2023/02/12 06:03:00;;;;;;;28.88;10.73;;;-0.70;92.60;;;;;;4980357;28;87430;-72
2023/02/12 06:05:26;;;;;;;24.17;10.45;;;-0.70;93.00;;;;;;4974692;28;89696;-72
2023/02/12 06:07:54;;;;;;;32.45;10.43;;;-0.70;92.90;;;;;;4976036;28;87755;-72
2023/02/12 06:10:20;;;;;;;28.60;10.07;;;-0.70;93.10;;;;;;4977623;28;88067;-72
2023/02/12 06:12:45;;;;;;;23.35;9.73;;;-0.70;93.00;;;;;;4975095;28;86778;-71
2023/02/12 06:15:11;;;;;;;20.88;8.73;;;-0.80;93.30;;;;;;4973424;28;88233;-73
2023/02/12 06:17:37;;;;;;;25.30;9.55;;;-0.80;93.30;;;;;;4975407;28;87971;-74
2023/02/12 06:20:03;;;;;;;22.45;8.90;;;-0.70;93.10;;;;;;4982309;28;88512;-74
2023/02/12 06:22:29;;;;;;;23.60;9.20;;;-0.70;93.20;;;;;;4986690;28;87455;-75
2023/02/12 06:24:54;;;;;;;24.88;8.85;;;-0.70;93.20;;;;;;4977189;28;88268;-76
2023/02/12 06:27:20;;;;;;;20.73;8.60;;;-0.70;93.00;;;;;;4979857;28;88068;-76
2023/02/12 06:29:45;;;;;;;22.58;8.48;;;-0.70;92.60;;;;;;4981703;28;87487;-76
2023/02/12 06:32:12;;;;;;;24.60;7.88;;;-0.70;92.50;;;;;;4982774;28;87042;-75
2023/02/12 06:34:39;;;;;;;21.25;8.63;;;-0.70;92.40;;;;;;4982523;28;88998;-75
2023/02/12 06:37:05;;;;;;;18.50;7.65;;;-0.70;92.40;;;;;;4980417;28;87921;-74
2023/02/12 06:39:31;;;;;;;28.23;8.55;;;-0.70;92.70;;;;;;4978644;28;87454;-74
2023/02/12 06:41:56;;;;;;;20.90;8.27;;;-0.70;92.30;;;;;;4981771;28;87375;-74
2023/02/12 06:44:22;;;;;;;23.15;8.90;;;-0.70;92.40;;;;;;4977323;28;88649;-74
2023/02/12 06:46:48;;;;;;;21.25;9.27;;;-0.60;92.50;;;;;;4978664;28;90804;-74
2023/02/12 06:49:13;;;;;;;24.63;9.60;;;-0.60;92.50;;;;;;4979510;28;87609;-73
2023/02/12 06:51:40;;;;;;;22.85;9.57;;;-0.70;92.60;;;;;;4979647;28;87245;-75
2023/02/12 06:54:12;;;;;;;26.17;10.43;;;-0.70;92.40;;;;;;4981257;28;88253;-75
2023/02/12 06:56:38;;;;;;;21.77;10.23;;;-0.70;92.40;;;;;;4973064;28;88020;-76
2023/02/12 06:59:04;;;;;;;23.70;9.52;;;-0.70;92.20;;;;;;4975621;28;90697;-73
2023/02/12 07:01:30;;;;;;;25.20;10.10;;;-0.60;92.00;;;;;;4976666;28;86800;-73
2023/02/12 07:04:01;;;;;;;25.05;11.18;;;-0.60;92.30;;;;;;4967645;28;88904;-75
2023/02/12 07:06:28;;;;;;;21.33;9.93;;;-0.60;92.00;;;;;;4979437;28;90666;-73
2023/02/12 07:08:55;;;;;;;27.30;10.95;;;-0.50;91.70;;;;;;4971238;28;88059;-73
2023/02/12 07:11:25;;;;;;;26.08;10.85;;;-0.30;91.60;;;;;;4971298;28;87194;-74
2023/02/12 07:13:51;;;;;;;21.92;9.23;;;0.00;91.20;;;;;;4969484;28;88432;-75
2023/02/12 07:16:17;;;;;;;25.30;9.85;;;0.50;90.40;;;;;;4971347;28;87806;-76
2023/02/12 07:18:43;;;;;;;21.65;9.80;;;0.90;88.70;;;;;;4972907;28;88473;-76
2023/02/12 07:21:11;;;;;;;26.05;9.90;;;1.50;86.00;;;;;;4975528;28;89465;-76
2023/02/12 07:23:38;;;;;;;23.08;10.02;;;1.50;83.80;;;;;;4979147;28;88079;-74
2023/02/12 07:26:14;;;;;;;24.65;9.57;;;1.80;84.60;;;;;;4972779;28;88468;-74
2023/02/12 07:28:40;;;;;;;23.13;9.20;;;3.50;81.30;;;;;;4975642;28;87527;-75
2023/02/12 07:31:08;;;;;;;23.85;10.27;;;5.30;75.00;;;;;;4980198;28;88062;-74
2023/02/12 07:33:34;;;;;;;19.42;9.45;;;6.70;69.40;;;;;;4974452;28;88714;-74
2023/02/12 07:36:01;;;;;;;20.85;9.43;;;8.00;65.80;;;;;;4981742;28;88648;-75
2023/02/12 07:38:27;;;;;;;21.17;10.27;;;9.00;60.10;;;;;;4978993;28;87665;-74
2023/02/12 07:40:53;;;;;;;21.13;10.20;;;10.10;57.60;;;;;;4979936;28;87510;-74
2023/02/12 07:43:19;;;;;;;23.15;10.60;;;10.90;56.00;;;;;;4973465;28;88312;-74
2023/02/12 07:45:44;;;;;;;21.35;10.70;;;12.00;53.60;;;;;;4970107;28;88836;-74
2023/02/12 07:48:11;;;;;;;19.60;10.10;;;12.70;52.10;;;;;;4976350;28;87111;-74
2023/02/12 07:50:37;;;;;;;20.77;10.18;;;13.70;49.60;;;;;;4976597;28;86606;-74
2023/02/12 07:53:02;;;;;;;21.15;10.25;;;14.60;48.20;;;;;;4970093;28;88211;-74
2023/02/12 07:55:28;;;;;;;20.42;10.68;;;15.60;45.40;;;;;;4974755;28;88181;-74
2023/02/12 07:57:54;;;;;;;18.83;10.10;;;15.30;45.00;;;;;;4978002;28;88818;-74
2023/02/12 08:00:19;;;;;;;17.13;9.57;;;15.70;45.20;;;;;;4972529;28;87541;-74
2023/02/12 08:02:51;;;;;;;16.83;10.10;;;15.80;44.00;;;;;;4971240;28;87646;-74
2023/02/12 08:05:17;;;;;;;17.80;8.98;;;16.50;43.50;;;;;;4984263;28;88228;-72
2023/02/12 08:07:43;;;;;;;16.02;9.02;;;17.00;42.00;;;;;;4976076;28;87788;-74
2023/02/12 08:10:09;;;;;;;13.50;7.82;;;16.80;40.90;;;;;;4967954;28;88340;-74
2023/02/12 08:12:34;;;;;;;15.75;8.50;;;17.30;40.60;;;;;;4973403;28;87712;-74
2023/02/12 08:15:00;;;;;;;14.52;8.93;;;17.60;40.50;;;;;;4976308;28;87949;-73
2023/02/12 08:17:26;;;;;;;13.73;8.40;;;18.20;39.90;;;;;;4984015;28;87542;-74
2023/02/12 08:19:51;;;;;;;14.80;8.48;;;18.70;39.40;;;;;;4983523;28;87754;-74
2023/02/12 08:22:17;;;;;;;15.05;8.48;;;19.30;38.50;;;;;;4979102;28;88717;-72
2023/02/12 08:24:43;;;;;;;12.75;8.05;;;18.80;37.50;;;;;;4974184;28;88367;-73
2023/02/12 08:27:09;;;;;;;13.20;8.45;;;18.60;37.50;;;;;;4989532;28;87319;-72
2023/02/12 08:29:35;;;;;;;15.55;8.73;;;18.60;37.80;;;;;;4978728;28;87749;-72
2023/02/12 08:32:02;;;;;;;16.17;8.27;;;18.80;37.30;;;;;;4987811;28;87270;-74
2023/02/12 08:34:31;;;;;;;13.63;8.68;;;19.60;36.70;;;;;;4971385;28;87845;-74
2023/02/12 08:36:57;;;;;;;16.65;9.35;;;20.20;36.30;;;;;;4980504;28;87512;-74
2023/02/12 08:39:25;;;;;;;16.35;9.63;;;19.80;35.40;;;;;;4983698;28;87257;-74
2023/02/12 08:41:52;;;;;;;17.25;9.65;;;19.20;37.60;;;;;;4976585;28;88031;-73
2023/02/12 08:44:18;;;;;;;12.23;8.48;;;19.80;36.80;;;;;;4979486;28;88051;-74
2023/02/12 08:46:46;;;;;;;15.63;8.68;;;20.50;36.40;;;;;;4974760;28;88447;-73
2023/02/12 08:49:15;;;;;;;12.85;8.88;;;20.60;36.10;;;;;;4984211;28;87690;-74
2023/02/12 08:51:43;;;;;;;14.55;8.85;;;22.00;34.40;;;;;;4977430;28;87980;-74
2023/02/12 08:54:14;;;;;;;13.10;8.60;;;22.80;33.00;;;;;;4976467;28;87476;-74
2023/02/12 08:56:41;;;;;;;14.48;9.38;;;23.70;34.20;;;;;;4972292;28;87609;-74
2023/02/12 08:59:07;;;;;;;13.63;9.57;;;23.30;32.50;;;;;;4971322;28;89056;-74
2023/02/12 09:01:40;;;;;;;16.55;9.82;;;24.10;31.70;;;;;;4973752;28;90105;-74
2023/02/12 09:04:07;;;;;;;16.17;10.48;;;23.40;32.20;;;;;;4984797;28;87219;-74
2023/02/12 09:06:34;;;;;;;16.75;10.63;;;24.10;32.80;;;;;;4987243;28;87413;-72
2023/02/12 09:09:01;;;;;;;17.27;11.48;;;24.40;31.90;;;;;;4971699;28;88185;-74
2023/02/12 09:11:30;;;;;;;15.38;11.13;;;25.80;32.00;;;;;;4981651;28;89945;-74
2023/02/12 09:14:03;;;;;;;18.27;11.73;;;24.80;30.10;;;;;;4978541;28;88923;-74
2023/02/12 09:16:30;;;;;;;17.83;12.88;;;25.00;32.50;;;;;;4984092;28;87668;-74
2023/02/12 09:18:56;;;;;;;15.63;11.52;;;25.80;30.80;;;;;;4970575;28;87540;-73
2023/02/12 09:21:22;;;;;;;18.70;12.35;;;26.60;29.70;;;;;;4969880;28;91183;-74
2023/02/12 09:23:48;;;;;;;16.30;11.77;;;26.00;29.90;;;;;;4978621;28;87886;-74
2023/02/12 09:26:20;;;;;;;16.08;11.77;;;25.90;30.50;;;;;;4986642;28;87413;-74
2023/02/12 09:28:47;;;;;;;15.18;10.82;;;26.70;29.60;;;;;;4970538;28;86911;-74
2023/02/12 09:31:19;;;;;;;15.82;11.15;;;26.50;29.50;;;;;;4965688;28;89232;-74
2023/02/12 09:33:45;;;;;;;15.65;11.00;;;26.00;29.50;;;;;;4976054;28;88025;-74
2023/02/12 09:36:14;;;;;;;17.98;10.40;;;25.60;29.70;;;;;;4974963;28;88605;-74
2023/02/12 09:38:40;;;;;;;14.50;9.63;;;24.40;30.50;;;;;;4971018;28;87481;-74
2023/02/12 09:41:45;;;;;;;16.50;10.15;;;22.80;31.80;;;;;;4970921;28;87689;-73
2023/02/12 09:44:21;;;;;;;15.70;10.07;;;20.40;33.70;;;;;;4977118;28;87137;-73
2023/02/12 09:46:56;;;;;;;15.85;9.77;;;19.00;35.80;;;;;;4975621;28;87676;-74
2023/02/12 09:49:40;;;;;;;14.00;9.57;;;18.30;37.20;;;;;;4971357;28;87904;-74
2023/02/12 09:52:15;;;;;;;18.88;9.50;;;18.10;37.40;;;;;;4971315;28;87964;-73
2023/02/12 09:54:43;;;;;;;14.05;9.30;;;18.60;37.20;;;;;;4970731;28;89327;-73
2023/02/12 09:57:34;;;;;;;18.67;8.85;;;19.70;35.80;;;;;;4981786;28;87340;-74
2023/02/12 10:00:14;;;;;;;14.30;8.45;;;20.80;34.40;;;;;;4984490;28;87408;-74
2023/02/12 10:02:40;;;;;;;11.50;6.82;;;21.80;33.70;;;;;;4980610;28;89566;-74
2023/02/12 10:05:16;;;;;;;11.48;7.70;;;23.00;32.20;;;;;;4971804;28;88771;-74
2023/02/12 10:08:19;;;;;;;12.60;7.47;;;24.10;30.20;;;;;;4993005;28;88505;-74
2023/02/12 10:11:22;;;;;;;9.75;7.15;;;25.40;29.60;;;;;;4978166;28;87490;-74
2023/02/12 10:13:52;;;;;;;11.73;6.82;;;26.40;28.70;;;;;;4992161;28;88411;-74
2023/02/12 10:16:42;;;;;;;12.52;8.50;;;26.60;28.90;;;;;;4973206;28;88739;-74
2023/02/12 10:19:30;;;;;;;10.45;7.28;;;27.30;28.70;;;;;;4968739;28;87563;-71
2023/02/12 10:22:07;;;;;;;12.25;8.27;;;28.20;28.00;;;;;;4983690;28;86859;-75
2023/02/12 10:24:59;;;;;;;10.45;7.05;;;28.20;27.90;;;;;;4965848;28;88000;-73
2023/02/12 10:27:39;;;;;;;12.40;8.30;;;28.60;27.60;;;;;;4979441;28;88048;-74
2023/02/12 10:30:28;;;;;;;11.20;7.93;;;28.50;27.70;;;;;;4968709;28;89130;-73
2023/02/12 10:33:02;;;;;;;10.02;7.93;;;29.00;27.20;;;;;;4979916;28;87099;-73
2023/02/12 10:35:28;;;;;;;10.80;6.95;;;28.50;27.30;;;;;;4979151;28;88602;-73
2023/02/12 10:38:16;;;;;;;10.63;7.15;;;28.20;27.20;;;;;;4981986;28;87792;-73
2023/02/12 10:40:44;;;;;;;9.27;6.63;;;28.20;27.30;;;;;;4978207;28;87310;-73
2023/02/12 10:43:12;;;;;;;12.45;8.73;;;28.20;26.90;;;;;;4972854;28;88944;-74
2023/02/12 10:45:40;;;;;;;14.82;10.73;;;27.90;28.00;;;;;;4979299;28;89514;-74
2023/02/12 10:48:20;;;;;;;16.05;11.45;;;26.70;29.30;;;;;;4976993;28;88220;-73
2023/02/12 10:50:58;;;;;;;14.10;10.60;;;24.60;30.60;;;;;;4976761;28;87753;-73
2023/02/12 10:53:29;;;;;;;16.90;10.98;;;22.20;33.20;;;;;;4983850;28;87066;-73
2023/02/12 10:56:13;;;;;;;16.50;11.35;;;20.30;35.20;;;;;;4978180;28;88666;-72
2023/02/12 10:58:50;;;;;;;17.55;10.93;;;18.30;38.30;;;;;;4990316;28;88682;-72
2023/02/12 11:01:24;;;;;;;17.05;10.43;;;16.70;41.00;;;;;;4973770;28;87468;-73
2023/02/12 11:03:51;;;;;;;16.23;8.98;;;15.40;43.60;;;;;;4977927;28;87538;-73
2023/02/12 11:06:19;;;;;;;18.30;9.10;;;14.70;44.30;;;;;;4973788;28;89099;-74
2023/02/12 11:08:45;;;;;;;15.60;8.85;;;14.10;45.70;;;;;;4979823;28;87886;-74
2023/02/12 11:11:19;;;;;;;16.95;8.70;;;13.60;46.60;;;;;;4979273;28;87459;-73
2023/02/12 11:14:18;;;;;;;16.08;8.07;;;13.20;48.10;;;;;;4976603;28;88079;-73
2023/02/12 11:16:53;;;;;;;13.43;7.80;;;12.50;49.20;;;;;;4969285;28;88771;-73
2023/02/12 11:19:30;;;;;;;13.68;7.55;;;12.20;49.80;;;;;;4968098;28;87392;-74
2023/02/12 11:22:09;;;;;;;16.25;8.07;;;12.10;49.90;;;;;;4973401;28;88436;-73
2023/02/12 11:24:36;;;;;;;15.55;7.72;;;11.80;51.40;;;;;;4980428;28;87596;-73
2023/02/12 11:27:14;;;;;;;18.10;7.40;;;11.70;52.10;;;;;;4982318;28;87500;-73
2023/02/12 11:29:41;;;;;;;15.93;7.35;;;11.40;52.70;;;;;;4987630;28;87328;-74
2023/02/12 11:32:14;;;;;;;15.10;8.60;;;11.00;53.30;;;;;;4973433;28;87509;-74
2023/02/12 11:34:39;;;;;;;15.35;7.38;;;11.00;53.50;;;;;;4976799;28;87786;-72
2023/02/12 11:37:16;;;;;;;17.65;7.90;;;10.90;52.10;;;;;;4972137;28;88374;-73
2023/02/12 11:39:46;;;;;;;14.65;7.70;;;10.80;53.40;;;;;;4982012;28;88642;-74
2023/02/12 11:42:24;;;;;;;14.07;6.20;;;10.90;53.60;;;;;;4978992;28;89453;-73
2023/02/12 11:44:56;;;;;;;15.18;7.35;;;10.90;52.40;;;;;;4994765;28;87455;-73
2023/02/12 11:47:29;;;;;;;12.60;6.20;;;10.90;52.90;;;;;;4973293;28;89270;-73
2023/02/12 11:50:14;;;;;;;12.98;6.45;;;10.80;52.30;;;;;;4974888;28;88765;-73
2023/02/12 11:52:41;;;;;;;15.60;8.18;;;10.70;52.20;;;;;;4997057;28;87092;-73
2023/02/12 11:55:21;;;;;;;14.98;7.80;;;10.70;54.00;;;;;;4983010;28;87235;-74
2023/02/12 11:57:50;;;;;;;16.35;8.13;;;10.70;54.90;;;;;;4992624;28;88273;-73
2023/02/12 12:00:35;;;;;;;17.02;8.35;;;10.60;54.30;;;;;;4974748;28;87863;-73
2023/02/12 12:03:12;;;;;;;16.02;8.38;;;10.60;55.00;;;;;;4986971;28;87417;-74
2023/02/12 12:05:45;;;;;;;15.85;7.70;;;10.50;55.00;;;;;;4986554;28;86515;-73
2023/02/12 12:08:19;;;;;;;13.30;7.10;;;10.50;54.90;;;;;;4981814;28;87735;-73
2023/02/12 12:11:43;;;;;;;12.20;6.40;;;10.50;54.30;;;;;;4979228;28;87693;-72
2023/02/12 12:14:27;;;;;;;12.18;6.35;;;10.40;53.60;;;;;;4964453;28;88512;-73
2023/02/12 12:20:18;;;;;;;12.23;5.70;;;10.40;53.90;;;;;;4972664;28;87361;-74
2023/02/12 12:22:53;;;;;;;11.32;4.40;;;10.30;53.20;;;;;;4975705;28;88099;-73
2023/02/12 12:25:29;;;;;;;12.50;4.75;;;10.30;52.70;;;;;;4978620;28;87441;-73
2023/02/12 12:28:30;;;;;;;10.63;4.55;;;10.40;52.00;;;;;;4993980;28;87546;-73
2023/02/12 12:31:09;;;;;;;9.13;3.85;;;10.50;51.70;;;;;;4929651;28;87799;-74
2023/02/12 12:33:49;;;;;;;8.43;3.28;;;10.50;51.10;;;;;;4975056;28;87982;-74
2023/02/12 12:37:01;;;;;;;6.18;2.65;;;10.50;50.10;;;;;;4970344;28;87673;-74
2023/02/12 12:40:03;;;;;;;10.32;3.03;;;10.70;49.80;;;;;;4964489;28;88319;-74
2023/02/12 12:42:50;;;;;;;6.45;2.97;;;10.80;50.50;;;;;;4970535;28;89238;-74
2023/02/12 12:45:53;;;;;;;9.30;3.72;;;10.90;50.90;;;;;;4975400;28;89570;-72
2023/02/12 12:48:50;;;;;;;9.93;3.38;;;10.90;50.90;;;;;;4973109;28;88991;-73
2023/02/12 12:51:21;;;;;;;10.85;3.53;;;11.00;50.70;;;;;;4971254;28;87680;-74
2023/02/12 12:54:24;;;;;;;7.70;3.65;;;11.10;50.70;;;;;;4980457;28;91477;-74
2023/02/12 12:57:17;;;;;;;10.68;4.75;;;11.20;51.50;;;;;;4975623;28;87745;-74
2023/02/12 12:59:59;;;;;;;10.30;4.57;;;11.10;51.90;;;;;;4970679;28;87086;-74
2023/02/12 13:02:52;;;;;;;10.10;4.43;;;11.20;53.80;;;;;;4969123;28;86806;-74